createdAt,value
2019-03-19T18:24:15.532Z,5.95
2019-03-19T18:25:50.171Z,5.86
2019-03-19T18:27:25.867Z,5.72
2019-03-19T18:29:00.559Z,5.73
2019-03-19T18:30:35.329Z,5.69
2019-03-19T18:32:09.973Z,5.69
2019-03-19T18:33:44.637Z,5.66
2019-03-19T18:35:19.379Z,5.60
2019-03-19T18:36:53.998Z,5.52
2019-03-19T18:38:28.665Z,5.53
2019-03-19T18:40:03.409Z,5.45
2019-03-19T18:41:38.108Z,5.42
2019-03-19T18:43:12.757Z,5.29
2019-03-19T18:44:47.432Z,5.25
2019-03-19T18:46:22.133Z,5.36
2019-03-19T18:47:56.817Z,5.30
2019-03-19T18:49:31.520Z,5.25
2019-03-19T18:51:06.865Z,5.24
2019-03-19T18:52:41.507Z,5.18
2019-03-19T18:54:16.140Z,5.12
2019-03-19T18:55:50.763Z,5.04
2019-03-19T18:57:25.434Z,5.02
2019-03-19T18:59:00.098Z,5.08
2019-03-19T19:00:34.722Z,5.09
2019-03-19T19:02:09.450Z,5.05
2019-03-19T19:03:44.091Z,5.01
2019-03-19T19:05:18.748Z,4.99
2019-03-19T19:06:53.382Z,4.98
2019-03-19T19:08:28.104Z,4.85
2019-03-19T19:10:02.737Z,4.85
2019-03-19T19:11:37.366Z,4.82
2019-03-19T19:13:12.037Z,4.80
2019-03-19T19:14:46.680Z,4.79
2019-03-19T19:16:22.483Z,4.76
2019-03-19T19:17:57.111Z,4.73
2019-03-19T19:19:31.885Z,4.75
2019-03-19T19:21:06.632Z,4.72
2019-03-19T19:22:41.267Z,4.65
2019-03-19T19:24:15.958Z,4.64
2019-03-19T19:25:50.754Z,4.60
2019-03-19T19:27:26.397Z,4.58
2019-03-19T19:29:01.186Z,4.50
2019-03-19T19:30:35.888Z,4.51
2019-03-19T19:32:11.488Z,4.60
2019-03-19T19:33:46.297Z,4.52
2019-03-19T19:35:21.063Z,4.48
2019-03-19T19:36:55.704Z,4.48
2019-03-19T19:38:30.457Z,4.50
2019-03-19T19:40:05.869Z,4.47
2019-03-19T19:41:40.565Z,4.43
2019-03-19T19:43:15.399Z,4.38
2019-03-19T19:44:50.055Z,4.40
2019-03-19T19:46:24.739Z,4.34
2019-03-19T19:47:59.434Z,4.36
2019-03-19T19:49:34.018Z,4.38
2019-03-19T19:51:09.837Z,4.37
2019-03-19T19:52:44.585Z,4.32
2019-03-19T19:54:19.253Z,4.33
2019-03-19T19:55:53.939Z,4.32
2019-03-19T19:57:28.786Z,4.27
2019-03-19T19:59:03.939Z,4.26
2019-03-19T20:00:38.588Z,4.17
2019-03-19T20:02:13.293Z,4.10
2019-03-19T20:03:48.041Z,4.10
2019-03-19T20:05:22.726Z,4.10
2019-03-19T20:06:57.443Z,4.05
2019-03-19T20:08:32.121Z,4.07
2019-03-19T20:10:11.267Z,4.03
2019-03-19T20:11:45.653Z,3.94
2019-03-19T20:13:20.331Z,3.96
2019-03-19T20:14:55.067Z,4.00
2019-03-19T20:16:29.822Z,3.95
2019-03-19T20:18:04.535Z,3.92
2019-03-19T20:19:39.169Z,3.90
2019-03-19T20:21:14.910Z,3.93
2019-03-19T20:22:50.642Z,3.88
2019-03-19T20:24:25.446Z,3.91
2019-03-19T20:26:00.150Z,3.91
2019-03-19T20:27:34.799Z,3.88
2019-03-19T20:29:09.517Z,3.80
2019-03-19T20:30:44.156Z,3.79
2019-03-19T20:32:19.895Z,3.93
2019-03-19T20:33:54.660Z,3.96
2019-03-19T20:35:29.291Z,3.84
2019-03-19T20:37:04.237Z,3.76
2019-03-19T20:38:38.857Z,3.75
2019-03-19T20:40:13.868Z,3.70
2019-03-19T20:41:48.581Z,3.70
2019-03-19T20:43:24.239Z,3.63
2019-03-19T20:44:58.904Z,3.58
2019-03-19T20:46:33.632Z,3.56
2019-03-19T20:48:08.421Z,3.54
2019-03-19T20:49:47.530Z,3.57
2019-03-19T20:51:19.506Z,3.51
2019-03-19T20:52:54.232Z,3.50
2019-03-19T20:54:28.911Z,3.45
2019-03-19T20:56:03.673Z,3.48
2019-03-19T20:57:39.402Z,3.48
2019-03-19T20:59:15.942Z,3.39
2019-03-19T21:00:50.563Z,3.39
2019-03-19T21:02:25.689Z,3.38
2019-03-19T21:04:00.745Z,3.37
2019-03-19T21:05:36.495Z,3.42
2019-03-19T21:07:11.375Z,3.41
2019-03-19T21:08:46.161Z,3.37
2019-03-19T21:10:20.876Z,3.35
2019-03-19T21:11:55.553Z,3.33
2019-03-19T21:13:30.329Z,3.35
2019-03-19T21:15:05.887Z,3.35
2019-03-19T21:16:40.543Z,3.31
2019-03-19T21:18:15.208Z,3.36
2019-03-19T21:19:49.875Z,3.36
2019-03-19T21:21:24.540Z,3.27
2019-03-19T21:22:59.284Z,3.18
2019-03-19T21:24:33.986Z,3.05
2019-03-19T21:26:08.805Z,3.07
2019-03-19T21:27:43.548Z,3.02
2019-03-19T21:29:18.200Z,2.94
2019-03-19T21:30:52.851Z,2.96
2019-03-19T21:32:27.531Z,2.89
2019-03-19T21:34:02.288Z,2.91
2019-03-19T21:35:36.962Z,2.93
2019-03-19T21:37:11.669Z,2.86
2019-03-19T21:38:46.298Z,2.93
2019-03-19T21:40:21.054Z,2.88
2019-03-19T21:41:55.798Z,2.84
2019-03-19T21:43:30.462Z,2.85
2019-03-19T21:45:06.265Z,2.85
2019-03-19T21:46:40.967Z,2.80
2019-03-19T21:48:15.677Z,2.80
2019-03-19T21:49:50.347Z,2.84
2019-03-19T21:51:25.084Z,2.78
2019-03-19T21:52:59.798Z,2.80
2019-03-19T21:54:34.451Z,2.72
2019-03-19T21:56:09.169Z,2.74
2019-03-19T21:57:44.798Z,2.81
2019-03-19T21:59:19.468Z,2.83
2019-03-19T22:00:54.111Z,2.93
2019-03-19T22:02:28.826Z,2.98
2019-03-19T22:04:03.623Z,2.87
2019-03-19T22:05:38.409Z,2.83
2019-03-19T22:07:13.057Z,2.78
2019-03-19T22:08:47.725Z,2.69
2019-03-19T22:10:22.867Z,2.71
2019-03-19T22:11:57.522Z,2.77
2019-03-19T22:13:32.157Z,2.87
2019-03-19T22:15:12.121Z,2.73
2019-03-19T22:16:47.166Z,2.78
2019-03-19T22:18:21.831Z,2.77
2019-03-19T22:19:57.575Z,2.86
2019-03-19T22:21:32.283Z,2.74
2019-03-19T22:23:07.093Z,2.75
2019-03-19T22:24:41.853Z,2.72
2019-03-19T22:26:16.606Z,2.62
2019-03-19T22:27:51.341Z,2.57
2019-03-19T22:29:26.053Z,2.66
2019-03-19T22:31:00.729Z,2.71
2019-03-19T22:32:35.383Z,2.68
2019-03-19T22:34:14.021Z,2.48
2019-03-19T22:35:46.502Z,2.51
2019-03-19T22:37:21.168Z,2.62
2019-03-19T22:38:55.812Z,2.71
2019-03-19T22:40:30.555Z,2.74
2019-03-19T22:42:05.284Z,2.72
2019-03-19T22:43:39.947Z,2.58
2019-03-19T22:45:14.850Z,2.67
2019-03-19T22:46:49.503Z,2.72
2019-03-19T22:48:24.154Z,2.69
2019-03-19T22:49:58.821Z,2.65
2019-03-19T22:51:33.473Z,2.65
2019-03-19T22:53:08.136Z,2.55
2019-03-19T22:54:42.827Z,2.60
2019-03-19T22:56:17.500Z,2.54
2019-03-19T22:57:52.163Z,2.47
2019-03-19T22:59:26.822Z,2.33
2019-03-19T23:01:01.734Z,2.36
2019-03-19T23:02:38.138Z,2.46
2019-03-19T23:04:12.784Z,2.30
2019-03-19T23:05:47.489Z,2.26
2019-03-19T23:07:22.203Z,2.45
2019-03-19T23:08:56.854Z,2.44
2019-03-19T23:10:31.559Z,2.39
2019-03-19T23:12:07.901Z,2.51
2019-03-19T23:13:42.573Z,2.40
2019-03-19T23:15:17.207Z,2.51
2019-03-19T23:16:51.978Z,2.43
2019-03-19T23:18:26.726Z,2.42
2019-03-19T23:20:01.401Z,2.41
2019-03-19T23:21:36.211Z,2.43
2019-03-19T23:23:10.849Z,2.34
2019-03-19T23:24:45.555Z,2.31
2019-03-19T23:26:20.229Z,2.30
2019-03-19T23:27:55.882Z,2.33
2019-03-19T23:29:30.568Z,2.29
2019-03-19T23:31:05.330Z,2.16
2019-03-19T23:32:39.990Z,2.29
2019-03-19T23:34:14.676Z,2.17
2019-03-19T23:35:49.419Z,2.16
2019-03-19T23:37:24.202Z,2.11
2019-03-19T23:38:58.877Z,2.12
2019-03-19T23:40:34.662Z,2.08
2019-03-19T23:42:09.319Z,2.08
2019-03-19T23:43:43.958Z,1.95
2019-03-19T23:45:20.953Z,1.97
2019-03-19T23:46:57.599Z,2.09
2019-03-19T23:48:32.055Z,2.02
2019-03-19T23:50:08.780Z,1.90
2019-03-19T23:51:43.527Z,1.87
2019-03-19T23:53:18.221Z,1.97
2019-03-19T23:54:52.894Z,1.89
2019-03-19T23:56:27.693Z,1.86
2019-03-19T23:58:02.433Z,1.76
2019-03-19T23:59:37.060Z,1.77
